Time;durP1;ratioP1;P1;durP2;ratioP2;P2;SDS_P1;SDS_P2;PMS_P1;PMS_P2;Temp;Humidity;BMP_temperature;BMP_pressure;BME280_temperature;BME280_humidity;BME280_pressure;Samples;Min_cycle;Max_cycle;Signal;HPM_P1;HPM_P2
2022/03/05 00:00:37;;;;;;;8.38;5.40;;;2.90;80.80;;;;;;5062660;28;20031;-59
2022/03/05 00:03:03;;;;;;;8.52;7.57;;;2.80;80.60;;;;;;5069547;28;20396;-59
2022/03/05 00:05:29;;;;;;;8.88;5.75;;;2.90;80.80;;;;;;5065225;28;20020;-59
2022/03/05 00:07:54;;;;;;;11.15;6.35;;;2.90;80.70;;;;;;5071849;28;20025;-61
2022/03/05 00:10:21;;;;;;;9.13;7.35;;;2.80;80.90;;;;;;5074123;28;20384;-62
2022/03/05 00:12:48;;;;;;;9.88;5.68;;;2.90;80.80;;;;;;5060811;28;20064;-59
2022/03/05 00:15:14;;;;;;;9.07;7.53;;;2.80;80.80;;;;;;5060058;28;20060;-59
2022/03/05 00:17:40;;;;;;;8.73;6.47;;;2.80;81.40;;;;;;5071700;28;20028;-58
2022/03/05 00:20:06;;;;;;;10.02;8.20;;;2.80;81.10;;;;;;5072293;28;20545;-59
2022/03/05 00:22:32;;;;;;;11.10;8.93;;;2.80;81.40;;;;;;5072332;28;20027;-59
2022/03/05 00:24:58;;;;;;;9.23;5.78;;;2.90;81.50;;;;;;5069381;28;20419;-59
2022/03/05 00:27:24;;;;;;;10.45;8.35;;;2.80;81.30;;;;;;5061988;28;20037;-58
2022/03/05 00:29:52;;;;;;;10.80;7.03;;;2.80;81.70;;;;;;5070028;28;20036;-59
2022/03/05 00:32:18;;;;;;;7.95;5.65;;;2.80;81.50;;;;;;5067713;28;20028;-59
2022/03/05 00:34:44;;;;;;;11.48;8.45;;;2.80;81.80;;;;;;5070966;28;20054;-59
2022/03/05 00:37:10;;;;;;;7.90;5.88;;;2.80;82.00;;;;;;5069754;28;20100;-59
2022/03/05 00:39:36;;;;;;;11.15;9.27;;;2.80;81.70;;;;;;5063153;28;20544;-59
2022/03/05 00:42:03;;;;;;;11.55;6.85;;;2.80;82.00;;;;;;5072917;28;20025;-59
2022/03/05 00:44:29;;;;;;;10.35;6.82;;;2.80;81.60;;;;;;5070300;28;20028;-59
2022/03/05 00:46:55;;;;;;;10.07;8.43;;;2.70;81.70;;;;;;5071383;28;20401;-59
2022/03/05 00:49:21;;;;;;;8.20;6.43;;;2.70;81.90;;;;;;5067161;28;20039;-59
2022/03/05 00:51:48;;;;;;;11.57;6.53;;;2.70;81.60;;;;;;5071572;28;20029;-59
2022/03/05 00:54:13;;;;;;;10.52;8.95;;;2.60;81.80;;;;;;5072634;28;20040;-59
2022/03/05 00:56:39;;;;;;;10.23;7.15;;;2.60;82.20;;;;;;5063636;28;20037;-59
2022/03/05 00:59:05;;;;;;;9.65;6.15;;;2.60;81.80;;;;;;5062661;28;20021;-59
2022/03/05 01:01:31;;;;;;;9.75;8.27;;;2.50;81.80;;;;;;5065111;28;20016;-59
2022/03/05 01:03:57;;;;;;;10.25;9.18;;;2.60;81.90;;;;;;5071354;28;20609;-61
2022/03/05 01:06:23;;;;;;;11.57;6.53;;;2.60;81.80;;;;;;5068733;28;20048;-60
2022/03/05 01:08:49;;;;;;;11.57;6.53;;;2.50;81.60;;;;;;5072347;28;20060;-60
2022/03/05 01:11:17;;;;;;;11.68;6.20;;;2.50;81.60;;;;;;5070130;28;20029;-60
2022/03/05 01:13:44;;;;;;;8.90;8.00;;;2.50;81.50;;;;;;5062367;28;20021;-60
2022/03/05 01:16:10;;;;;;;10.80;6.43;;;2.50;81.70;;;;;;5065433;28;20040;-60
2022/03/05 01:18:36;;;;;;;11.15;9.13;;;2.40;81.40;;;;;;5066525;28;20024;-60
2022/03/05 01:21:02;;;;;;;12.30;6.30;;;2.40;81.60;;;;;;5056083;28;20035;-60
2022/03/05 01:23:28;;;;;;;11.07;6.50;;;2.40;81.60;;;;;;5066726;28;20032;-60
2022/03/05 01:25:53;;;;;;;10.73;6.07;;;2.40;81.80;;;;;;5072636;28;20103;-60
2022/03/05 01:28:19;;;;;;;9.88;6.22;;;2.40;82.00;;;;;;5071565;28;20021;-60
2022/03/05 01:30:45;;;;;;;11.43;8.93;;;2.40;82.10;;;;;;5068569;28;20074;-60
2022/03/05 01:33:15;;;;;;;8.73;6.53;;;2.40;82.10;;;;;;5070406;28;20392;-60
2022/03/05 01:35:41;;;;;;;10.20;6.40;;;2.40;81.70;;;;;;5067651;28;20028;-60
2022/03/05 01:38:07;;;;;;;10.30;8.98;;;2.40;81.80;;;;;;5067193;28;20029;-60
2022/03/05 01:40:33;;;;;;;10.70;9.27;;;2.40;81.70;;;;;;5071601;28;20047;-60
2022/03/05 01:42:59;;;;;;;10.52;9.27;;;2.50;81.90;;;;;;5068391;28;20056;-60
2022/03/05 01:45:25;;;;;;;9.35;6.15;;;2.50;81.90;;;;;;5065800;28;20154;-60
2022/03/05 01:47:51;;;;;;;10.65;6.13;;;2.40;82.10;;;;;;5073461;28;20047;-60
2022/03/05 01:50:17;;;;;;;8.48;5.88;;;2.40;82.00;;;;;;5073501;28;20504;-60
2022/03/05 01:52:43;;;;;;;13.30;7.53;;;2.30;82.80;;;;;;5076754;28;20035;-60
2022/03/05 01:55:09;;;;;;;10.52;6.03;;;2.30;82.70;;;;;;5071180;28;20032;-60
2022/03/05 01:57:35;;;;;;;9.85;8.50;;;2.30;82.70;;;;;;5072333;28;20020;-60
2022/03/05 02:00:01;;;;;;;10.15;6.80;;;2.30;82.80;;;;;;5068162;28;20033;-60
2022/03/05 02:02:26;;;;;;;9.98;7.93;;;2.30;82.30;;;;;;5066868;28;20032;-60
2022/03/05 02:04:52;;;;;;;8.00;5.70;;;2.30;82.10;;;;;;5071895;28;20460;-60
2022/03/05 02:07:18;;;;;;;8.07;5.28;;;2.20;81.50;;;;;;5062028;28;20432;-60
2022/03/05 02:09:43;;;;;;;6.50;4.35;;;2.10;81.80;;;;;;5074729;28;20474;-60
2022/03/05 02:12:09;;;;;;;7.53;5.05;;;2.10;82.10;;;;;;5055373;28;20028;-59
2022/03/05 02:14:35;;;;;;;8.70;7.18;;;2.10;82.50;;;;;;5071024;28;20442;-60
2022/03/05 02:17:02;;;;;;;9.13;5.85;;;2.10;82.50;;;;;;5071056;28;20064;-60
2022/03/05 02:19:28;;;;;;;8.02;5.75;;;2.10;82.30;;;;;;5059691;28;20082;-60
2022/03/05 02:21:53;;;;;;;9.85;5.93;;;2.10;82.50;;;;;;5063636;28;20488;-60
2022/03/05 02:24:31;;;;;;;10.10;8.65;;;2.00;82.70;;;;;;5071633;28;20032;-60
2022/03/05 02:27:02;;;;;;;10.00;6.63;;;2.10;82.90;;;;;;5071467;28;20036;-60
2022/03/05 02:29:30;;;;;;;9.53;6.07;;;2.10;83.20;;;;;;5071091;28;20396;-60
2022/03/05 02:31:56;;;;;;;13.07;8.73;;;2.10;82.70;;;;;;5070694;28;20660;-60
2022/03/05 02:34:22;;;;;;;9.95;6.82;;;2.20;82.70;;;;;;5067551;28;20033;-61
2022/03/05 02:36:49;;;;;;;9.48;5.78;;;2.10;82.30;;;;;;5067867;28;20089;-60
2022/03/05 02:39:15;;;;;;;11.57;8.75;;;2.10;82.60;;;;;;5073636;28;20068;-61
2022/03/05 02:41:40;;;;;;;9.68;8.30;;;2.20;82.80;;;;;;5069323;28;20472;-59
2022/03/05 02:44:06;;;;;;;9.57;6.43;;;2.30;82.60;;;;;;5073686;28;20388;-59
2022/03/05 02:46:34;;;;;;;10.15;5.72;;;2.20;82.20;;;;;;5074751;28;20069;-59
2022/03/05 02:49:00;;;;;;;10.05;5.40;;;2.20;82.50;;;;;;5074978;28;20403;-62
2022/03/05 02:51:26;;;;;;;9.43;5.75;;;2.20;82.70;;;;;;5070761;28;20024;-60
2022/03/05 02:53:52;;;;;;;9.00;5.90;;;2.20;82.80;;;;;;5071352;28;20579;-60
2022/03/05 02:56:18;;;;;;;7.68;5.13;;;2.20;82.70;;;;;;5073615;28;20137;-60
2022/03/05 02:58:43;;;;;;;11.70;5.88;;;2.20;82.70;;;;;;5075580;28;20024;-60
2022/03/05 03:01:09;;;;;;;10.77;8.23;;;2.20;82.70;;;;;;5075374;28;20078;-60
2022/03/05 03:03:35;;;;;;;11.23;8.88;;;2.20;82.70;;;;;;5074616;28;20095;-60
2022/03/05 03:06:01;;;;;;;12.45;6.60;;;2.20;82.30;;;;;;5071693;28;20016;-60
2022/03/05 03:08:26;;;;;;;7.55;5.72;;;2.20;82.10;;;;;;5066796;28;20127;-60
2022/03/05 03:10:52;;;;;;;9.38;8.30;;;2.10;82.30;;;;;;5071091;28;20025;-60
2022/03/05 03:13:18;;;;;;;7.82;5.78;;;2.10;82.50;;;;;;5074634;28;20025;-60
2022/03/05 03:15:44;;;;;;;11.43;6.10;;;2.10;82.30;;;;;;5069087;28;20032;-60
2022/03/05 03:18:09;;;;;;;8.95;5.80;;;2.10;82.50;;;;;;5072910;28;20036;-60
2022/03/05 03:20:35;;;;;;;9.43;5.40;;;2.10;82.70;;;;;;5066406;28;20024;-60
2022/03/05 03:23:01;;;;;;;11.15;7.80;;;2.10;82.80;;;;;;5072701;28;20029;-60
2022/03/05 03:25:27;;;;;;;7.70;5.43;;;2.10;82.90;;;;;;5073702;28;20028;-60
2022/03/05 03:27:52;;;;;;;8.85;7.50;;;2.10;82.50;;;;;;5066603;28;20408;-59
2022/03/05 03:30:19;;;;;;;9.80;5.82;;;2.20;82.90;;;;;;5069743;28;20028;-60
2022/03/05 03:32:45;;;;;;;8.25;5.40;;;2.20;82.70;;;;;;5067277;28;20020;-60
2022/03/05 03:35:13;;;;;;;8.65;7.65;;;2.10;82.80;;;;;;5071595;28;20024;-60
2022/03/05 03:37:40;;;;;;;9.55;5.45;;;2.20;82.90;;;;;;5070984;28;20020;-60
2022/03/05 03:40:08;;;;;;;8.35;5.00;;;2.20;82.60;;;;;;5059702;28;20054;-59
2022/03/05 03:42:34;;;;;;;7.57;5.50;;;2.10;82.50;;;;;;5072439;28;20024;-60
2022/03/05 03:45:00;;;;;;;9.68;5.70;;;2.10;82.90;;;;;;5069680;28;20242;-60
2022/03/05 03:47:26;;;;;;;9.68;8.38;;;2.10;83.00;;;;;;5065487;28;20078;-61
2022/03/05 03:49:52;;;;;;;9.30;7.97;;;2.20;83.20;;;;;;5068895;28;20170;-60
2022/03/05 03:52:19;;;;;;;9.25;8.23;;;2.20;83.00;;;;;;5067784;28;20086;-60
2022/03/05 03:54:46;;;;;;;9.73;5.78;;;2.20;82.90;;;;;;5066024;28;20362;-60
2022/03/05 03:57:12;;;;;;;6.85;4.63;;;2.20;82.70;;;;;;5073609;28;20052;-59
2022/03/05 03:59:38;;;;;;;8.73;5.45;;;2.20;82.90;;;;;;5072656;28;20023;-60
2022/03/05 04:02:05;;;;;;;8.18;6.90;;;2.10;83.00;;;;;;5069650;28;20392;-59
2022/03/05 04:04:31;;;;;;;8.43;5.53;;;2.20;83.20;;;;;;5071100;28;20052;-60
2022/03/05 04:09:41;;;;;;;8.82;7.05;;;2.10;83.10;;;;;;5070744;28;20035;-60
2022/03/05 04:12:07;;;;;;;8.10;7.03;;;2.10;83.10;;;;;;5071783;28;20492;-60
2022/03/05 04:14:33;;;;;;;9.60;7.88;;;2.20;82.90;;;;;;5068999;28;20094;-60
2022/03/05 04:16:58;;;;;;;9.07;7.30;;;2.20;82.80;;;;;;5070328;28;20032;-60
2022/03/05 04:19:24;;;;;;;9.60;5.18;;;2.20;82.80;;;;;;5070043;28;20024;-60
2022/03/05 04:21:50;;;;;;;9.23;5.22;;;2.10;82.80;;;;;;5070827;28;20052;-60
2022/03/05 04:24:16;;;;;;;9.07;5.25;;;2.10;83.00;;;;;;5071890;28;20028;-60
2022/03/05 04:26:41;;;;;;;6.53;4.55;;;2.10;83.20;;;;;;5068060;28;20024;-60
2022/03/05 04:29:07;;;;;;;7.25;4.70;;;2.10;83.50;;;;;;5072374;28;20107;-60
2022/03/05 04:31:33;;;;;;;7.80;6.55;;;2.10;83.50;;;;;;5069950;28;20108;-60
2022/03/05 04:33:59;;;;;;;8.73;6.90;;;2.10;83.60;;;;;;5067073;28;20409;-60
2022/03/05 04:36:24;;;;;;;8.98;5.55;;;2.20;82.90;;;;;;5065972;28;20029;-60
2022/03/05 04:38:50;;;;;;;8.13;4.90;;;2.10;82.60;;;;;;5072472;28;20040;-60
2022/03/05 04:41:16;;;;;;;7.90;5.10;;;2.10;82.90;;;;;;5064628;28;20025;-60
2022/03/05 04:43:42;;;;;;;6.03;3.80;;;2.00;83.00;;;;;;5072069;28;20021;-60
2022/03/05 04:46:08;;;;;;;8.93;7.03;;;2.00;83.00;;;;;;5071115;28;20047;-60
2022/03/05 04:48:34;;;;;;;7.63;5.22;;;2.10;83.30;;;;;;5072487;28;20056;-60
2022/03/05 04:51:00;;;;;;;7.20;4.82;;;2.10;83.20;;;;;;5059917;28;20055;-60
2022/03/05 04:53:26;;;;;;;7.20;6.50;;;2.00;83.30;;;;;;5071396;28;20059;-60
2022/03/05 04:55:51;;;;;;;7.60;5.13;;;2.10;83.30;;;;;;5071832;28;20425;-60
2022/03/05 04:58:18;;;;;;;7.20;4.63;;;2.10;83.00;;;;;;5072824;28;20119;-60
2022/03/05 05:00:43;;;;;;;7.30;4.57;;;2.00;83.00;;;;;;5067192;28;20373;-60
2022/03/05 05:03:09;;;;;;;7.95;4.35;;;2.10;83.00;;;;;;5063141;28;20024;-60
2022/03/05 05:05:35;;;;;;;6.10;4.25;;;2.10;83.30;;;;;;5069488;28;20102;-60
2022/03/05 05:08:01;;;;;;;8.48;6.80;;;2.10;83.40;;;;;;5072829;28;20074;-60
2022/03/05 05:10:26;;;;;;;7.18;4.40;;;2.10;83.20;;;;;;5064303;28;20037;-60
2022/03/05 05:12:52;;;;;;;6.70;4.47;;;2.10;82.90;;;;;;5073092;28;20107;-60
2022/03/05 05:15:18;;;;;;;6.10;4.05;;;2.10;83.00;;;;;;5071745;28;20473;-60
2022/03/05 05:17:44;;;;;;;9.40;6.07;;;2.20;83.10;;;;;;5071125;28;20039;-60
2022/03/05 05:20:11;;;;;;;7.45;5.03;;;2.20;83.00;;;;;;5071729;28;20442;-60
2022/03/05 05:22:37;;;;;;;7.32;4.50;;;2.20;82.80;;;;;;5069524;28;20040;-60
2022/03/05 05:25:03;;;;;;;7.13;4.28;;;2.20;82.90;;;;;;5072134;28;20372;-60
2022/03/05 05:27:33;;;;;;;7.15;5.60;;;2.20;82.70;;;;;;5062866;28;20028;-60
2022/03/05 05:29:59;;;;;;;6.57;5.28;;;2.30;83.00;;;;;;5069163;28;20027;-60
2022/03/05 05:32:25;;;;;;;7.32;4.38;;;2.30;82.30;;;;;;5069618;28;20495;-60
2022/03/05 05:34:50;;;;;;;5.85;3.95;;;2.30;82.20;;;;;;5070076;28;20033;-60
2022/03/05 05:37:16;;;;;;;6.03;4.00;;;2.30;82.40;;;;;;5069538;28;20500;-60
2022/03/05 05:39:42;;;;;;;8.60;6.25;;;2.30;83.20;;;;;;5071363;28;20174;-60
2022/03/05 05:42:08;;;;;;;5.85;4.60;;;2.30;82.60;;;;;;5072542;28;20664;-60
2022/03/05 05:44:34;;;;;;;7.50;5.85;;;2.30;82.40;;;;;;5069267;28;20158;-60
2022/03/05 05:47:00;;;;;;;5.93;4.10;;;2.40;82.50;;;;;;5060627;28;20100;-60
2022/03/05 05:49:25;;;;;;;6.32;5.60;;;2.40;82.50;;;;;;5072637;28;20036;-60
2022/03/05 05:51:51;;;;;;;6.18;4.28;;;2.40;82.20;;;;;;5069540;28;20030;-60
2022/03/05 05:54:17;;;;;;;6.47;4.03;;;2.40;81.90;;;;;;5068186;28;20041;-60
2022/03/05 05:56:43;;;;;;;7.32;4.20;;;2.40;82.10;;;;;;5068185;28;21013;-60
2022/03/05 05:59:08;;;;;;;6.93;5.25;;;2.40;82.20;;;;;;5067944;28;20042;-60
2022/03/05 06:01:34;;;;;;;6.85;4.18;;;2.40;82.40;;;;;;5060188;28;20101;-60
2022/03/05 06:04:00;;;;;;;6.05;3.92;;;2.40;82.20;;;;;;5063572;28;20052;-60
2022/03/05 06:06:26;;;;;;;5.13;3.72;;;2.40;82.40;;;;;;5066149;28;20059;-60
2022/03/05 06:08:52;;;;;;;7.10;5.63;;;2.40;82.70;;;;;;5069306;28;20484;-60
2022/03/05 06:11:17;;;;;;;6.28;4.03;;;2.40;83.00;;;;;;5070912;28;20444;-60
2022/03/05 06:13:43;;;;;;;7.63;5.90;;;2.50;82.60;;;;;;5073534;28;20097;-60
2022/03/05 06:16:09;;;;;;;5.85;4.05;;;2.50;82.90;;;;;;5075591;28;20036;-60
2022/03/05 06:18:35;;;;;;;5.70;4.03;;;2.40;82.60;;;;;;5080144;28;20119;-60
2022/03/05 06:21:01;;;;;;;7.40;5.45;;;2.40;82.90;;;;;;5083657;28;20048;-60
2022/03/05 06:23:26;;;;;;;6.32;4.28;;;2.50;83.20;;;;;;5075231;28;20067;-60
2022/03/05 06:25:52;;;;;;;8.23;6.00;;;2.50;83.10;;;;;;5073505;28;20024;-60
2022/03/05 06:28:19;;;;;;;6.68;4.75;;;2.60;83.20;;;;;;5070358;28;20024;-59
2022/03/05 06:30:44;;;;;;;6.18;4.43;;;2.50;83.00;;;;;;5068440;28;20146;-60
2022/03/05 06:33:10;;;;;;;6.10;5.47;;;2.50;83.20;;;;;;5071256;28;20513;-60
2022/03/05 06:35:36;;;;;;;6.15;3.90;;;2.60;83.30;;;;;;5068440;28;20024;-60
2022/03/05 06:38:02;;;;;;;7.72;4.53;;;2.50;83.20;;;;;;5070760;28;20032;-60
2022/03/05 06:40:28;;;;;;;6.68;4.07;;;2.50;83.20;;;;;;5071480;28;20024;-60
2022/03/05 06:42:55;;;;;;;5.55;3.83;;;2.60;83.50;;;;;;5073097;28;20089;-60
2022/03/05 06:45:21;;;;;;;5.82;4.93;;;2.50;83.80;;;;;;5074784;28;20017;-60
2022/03/05 06:47:47;;;;;;;7.22;5.45;;;2.60;83.30;;;;;;5069699;28;20032;-59
2022/03/05 06:50:13;;;;;;;8.20;4.57;;;2.70;82.90;;;;;;5074596;28;20534;-60
2022/03/05 06:52:39;;;;;;;4.10;3.35;;;2.70;82.80;;;;;;5069508;28;20435;-60
2022/03/05 06:55:06;;;;;;;4.97;3.97;;;2.70;82.90;;;;;;5076068;28;20064;-61
2022/03/05 06:57:34;;;;;;;7.68;5.88;;;2.70;83.00;;;;;;5075709;28;20029;-60
2022/03/05 06:59:59;;;;;;;7.50;4.57;;;2.70;83.70;;;;;;5074963;28;20028;-60
2022/03/05 07:02:25;;;;;;;7.25;4.50;;;2.70;82.80;;;;;;5070927;28;20035;-59
2022/03/05 07:04:51;;;;;;;6.03;5.15;;;2.70;83.00;;;;;;5068437;28;20039;-60
2022/03/05 07:07:17;;;;;;;6.68;5.55;;;2.70;83.10;;;;;;5072050;28;20028;-60
2022/03/05 07:09:43;;;;;;;6.28;4.65;;;2.80;82.60;;;;;;5066758;28;20028;-60
2022/03/05 07:12:09;;;;;;;7.03;3.80;;;2.80;82.30;;;;;;5067414;28;20503;-60
2022/03/05 07:14:36;;;;;;;5.20;3.90;;;2.70;82.30;;;;;;5072359;28;20387;-60
2022/03/05 07:17:03;;;;;;;6.40;5.25;;;2.70;82.70;;;;;;5070635;28;20066;-60
2022/03/05 07:19:29;;;;;;;6.55;5.07;;;2.80;82.60;;;;;;5073953;28;20017;-60
2022/03/05 07:21:54;;;;;;;7.07;3.83;;;2.80;81.90;;;;;;5074390;28;20384;-57
2022/03/05 07:24:20;;;;;;;6.85;4.30;;;2.80;81.90;;;;;;5070457;28;20025;-59
2022/03/05 07:26:46;;;;;;;7.57;4.43;;;2.80;82.00;;;;;;5071210;28;20074;-60
2022/03/05 07:29:11;;;;;;;6.97;5.60;;;2.80;82.10;;;;;;5066317;28;20043;-60
2022/03/05 07:31:38;;;;;;;6.65;4.45;;;2.80;82.20;;;;;;5066688;28;20661;-59
2022/03/05 07:34:04;;;;;;;5.75;5.10;;;2.80;81.90;;;;;;5060767;28;20044;-60
2022/03/05 07:36:30;;;;;;;5.35;3.88;;;2.90;81.90;;;;;;5066988;28;20626;-60
2022/03/05 07:38:56;;;;;;;6.97;5.57;;;2.80;81.80;;;;;;5059952;28;20152;-60
2022/03/05 07:41:22;;;;;;;6.40;4.22;;;2.90;82.10;;;;;;5049112;28;20078;-59
2022/03/05 07:43:48;;;;;;;7.05;5.32;;;2.90;81.80;;;;;;5051351;28;20036;-59
2022/03/05 07:46:13;;;;;;;6.53;4.90;;;2.90;81.60;;;;;;5052115;28;20080;-60
2022/03/05 07:48:39;;;;;;;7.20;4.60;;;3.00;81.40;;;;;;5056359;28;20061;-60
2022/03/05 07:51:05;;;;;;;4.45;3.40;;;2.90;81.20;;;;;;5052007;28;20032;-60
2022/03/05 07:53:31;;;;;;;6.60;5.13;;;2.90;81.40;;;;;;5046576;28;20160;-61
2022/03/05 07:55:57;;;;;;;6.20;5.13;;;2.90;81.50;;;;;;5048406;28;20107;-60
2022/03/05 07:58:23;;;;;;;5.60;4.05;;;2.90;81.00;;;;;;5052059;28;20092;-59
2022/03/05 08:00:49;;;;;;;5.72;4.70;;;2.90;81.20;;;;;;5049283;28;20029;-59
2022/03/05 08:03:14;;;;;;;5.70;3.80;;;3.00;81.20;;;;;;5051990;28;20025;-59
2022/03/05 08:05:41;;;;;;;5.63;4.93;;;2.90;81.00;;;;;;5051382;28;20052;-59
2022/03/05 08:08:07;;;;;;;5.72;4.28;;;3.00;81.00;;;;;;5048629;28;20048;-60
2022/03/05 08:10:32;;;;;;;6.15;4.03;;;3.00;80.80;;;;;;5048326;28;20500;-59
2022/03/05 08:12:58;;;;;;;6.22;3.78;;;2.90;80.90;;;;;;5045130;28;20025;-59
2022/03/05 08:15:24;;;;;;;8.35;5.55;;;2.90;81.30;;;;;;5047545;28;20033;-60
2022/03/05 08:17:54;;;;;;;7.00;4.18;;;2.90;81.60;;;;;;5051151;28;20085;-60
2022/03/05 08:20:21;;;;;;;7.53;4.60;;;2.90;81.50;;;;;;5051444;28;20059;-60
2022/03/05 08:22:47;;;;;;;6.05;4.97;;;3.00;81.20;;;;;;5051989;28;20166;-58
2022/03/05 08:25:13;;;;;;;6.30;3.92;;;3.00;80.90;;;;;;5046223;28;20120;-59
2022/03/05 08:27:39;;;;;;;5.70;5.00;;;2.90;80.80;;;;;;5045067;28;20021;-60
2022/03/05 08:30:06;;;;;;;7.05;5.55;;;3.00;81.20;;;;;;5051707;28;20048;-60
2022/03/05 08:32:32;;;;;;;5.72;3.78;;;3.00;80.90;;;;;;5043896;28;20025;-60
2022/03/05 08:34:58;;;;;;;8.07;4.47;;;3.00;80.80;;;;;;5047354;28;20432;-60
2022/03/05 08:37:23;;;;;;;6.97;4.00;;;2.90;81.10;;;;;;5051444;28;20504;-60
2022/03/05 08:39:49;;;;;;;5.22;3.42;;;2.90;81.30;;;;;;5063073;28;20055;-59
2022/03/05 08:42:15;;;;;;;5.35;4.50;;;2.90;81.40;;;;;;5069332;28;20024;-60
2022/03/05 08:44:41;;;;;;;7.45;5.72;;;3.00;81.30;;;;;;5071991;28;20921;-60
2022/03/05 08:47:07;;;;;;;5.85;5.18;;;3.00;80.90;;;;;;5072240;28;20393;-60
2022/03/05 08:49:32;;;;;;;6.13;5.53;;;3.10;80.70;;;;;;5067509;28;20020;-59
2022/03/05 08:51:58;;;;;;;6.93;5.60;;;3.10;80.70;;;;;;5071494;28;20102;-60
2022/03/05 08:54:25;;;;;;;5.43;4.07;;;3.10;80.40;;;;;;5071669;28;20028;-60
2022/03/05 08:56:51;;;;;;;5.35;3.55;;;3.10;80.40;;;;;;5070029;28;20037;-61
2022/03/05 08:59:17;;;;;;;5.72;3.80;;;3.10;80.70;;;;;;5058630;28;20032;-60
2022/03/05 09:01:44;;;;;;;5.00;4.10;;;3.00;80.80;;;;;;5068147;28;20570;-60
2022/03/05 09:04:10;;;;;;;6.20;3.95;;;3.00;81.00;;;;;;5069527;28;20484;-60
2022/03/05 09:06:38;;;;;;;6.55;5.13;;;3.00;81.00;;;;;;5069495;28;20499;-60
2022/03/05 09:09:05;;;;;;;6.82;4.57;;;3.10;81.10;;;;;;5065952;28;20035;-59
2022/03/05 09:11:31;;;;;;;5.25;4.75;;;3.10;81.00;;;;;;5068146;28;20027;-60
2022/03/05 09:13:57;;;;;;;5.80;3.80;;;3.10;80.70;;;;;;5069184;28;20032;-59
2022/03/05 09:16:22;;;;;;;6.43;5.05;;;3.10;80.50;;;;;;5065437;28;20052;-59
2022/03/05 09:18:48;;;;;;;5.68;4.35;;;3.20;80.40;;;;;;5067701;28;20028;-59
2022/03/05 09:21:14;;;;;;;6.03;5.05;;;3.20;80.10;;;;;;5068365;28;20052;-60
2022/03/05 09:23:40;;;;;;;5.20;3.85;;;3.20;80.20;;;;;;5068609;28;20044;-60
2022/03/05 09:26:06;;;;;;;7.03;5.65;;;3.20;79.90;;;;;;5068003;28;20484;-60
2022/03/05 09:28:32;;;;;;;7.28;5.95;;;3.30;80.20;;;;;;5057801;28;20020;-60
2022/03/05 09:30:58;;;;;;;6.88;4.25;;;3.30;79.70;;;;;;5072683;28;20108;-59
2022/03/05 09:33:25;;;;;;;5.65;4.63;;;3.30;79.80;;;;;;5065882;28;20055;-60
2022/03/05 09:35:51;;;;;;;6.03;4.00;;;3.30;79.80;;;;;;5052375;28;20052;-59
2022/03/05 09:38:18;;;;;;;6.90;4.60;;;3.30;79.70;;;;;;5052277;28;20446;-60
2022/03/05 09:40:44;;;;;;;6.18;5.28;;;3.30;79.90;;;;;;5061329;28;20027;-60
2022/03/05 09:43:10;;;;;;;5.57;4.60;;;3.40;79.80;;;;;;5041464;28;20017;-60
2022/03/05 09:45:37;;;;;;;6.68;4.13;;;3.40;79.60;;;;;;5051521;28;20032;-60
2022/03/05 09:48:04;;;;;;;6.40;5.78;;;3.40;80.00;;;;;;5050236;28;20103;-61
2022/03/05 09:50:29;;;;;;;6.45;5.30;;;3.50;79.70;;;;;;5051925;28;20484;-60
2022/03/05 09:53:01;;;;;;;6.93;5.82;;;3.50;79.20;;;;;;5051783;28;20040;-60
2022/03/05 09:55:27;;;;;;;6.80;4.60;;;3.60;79.20;;;;;;5051744;28;20053;-60
2022/03/05 09:57:53;;;;;;;5.53;4.00;;;3.50;79.00;;;;;;5051601;28;20111;-60
2022/03/05 10:00:19;;;;;;;8.35;5.80;;;3.50;79.40;;;;;;5048293;28;20108;-60
2022/03/05 10:02:48;;;;;;;7.00;4.57;;;3.60;79.30;;;;;;5051052;28;20049;-60
2022/03/05 10:05:18;;;;;;;7.95;6.05;;;3.60;79.20;;;;;;5051785;28;20381;-61
2022/03/05 10:08:00;;;;;;;7.20;6.10;;;3.60;79.50;;;;;;5051820;28;20029;-62
2022/03/05 10:10:28;;;;;;;6.70;4.57;;;3.70;79.20;;;;;;5052183;28;20037;-60
2022/03/05 10:12:53;;;;;;;6.07;4.35;;;3.60;79.20;;;;;;5052029;28;20412;-61
2022/03/05 10:15:21;;;;;;;6.80;5.60;;;3.60;79.40;;;;;;5049184;28;20025;-61
2022/03/05 10:17:57;;;;;;;6.90;4.20;;;3.60;79.50;;;;;;5041916;28;20404;-60
2022/03/05 10:20:53;;;;;;;7.78;6.00;;;3.60;79.30;;;;;;5051525;28;20025;-61
2022/03/05 10:23:20;;;;;;;7.22;6.20;;;3.70;79.30;;;;;;5045538;28;20459;-60
2022/03/05 10:25:54;;;;;;;6.50;4.70;;;3.70;79.00;;;;;;5051575;28;20040;-61
2022/03/05 10:28:25;;;;;;;6.15;4.63;;;3.60;79.00;;;;;;5051866;28;20087;-60
2022/03/05 10:30:53;;;;;;;8.32;5.97;;;3.50;79.10;;;;;;5051743;28;20370;-61
2022/03/05 10:33:46;;;;;;;6.82;4.68;;;3.60;79.60;;;;;;5048196;28;20032;-61
2022/03/05 10:36:23;;;;;;;8.45;6.10;;;3.60;79.50;;;;;;5052327;28;20033;-62
2022/03/05 10:38:48;;;;;;;8.40;7.15;;;3.60;79.80;;;;;;5065447;28;20403;-60
2022/03/05 10:41:19;;;;;;;8.25;6.50;;;3.70;79.70;;;;;;5070585;28;20028;-61
2022/03/05 10:43:47;;;;;;;7.53;4.53;;;3.70;79.10;;;;;;5071901;28;20488;-61
2022/03/05 10:46:13;;;;;;;7.93;4.68;;;3.70;79.10;;;;;;5053824;28;20028;-61
2022/03/05 10:48:42;;;;;;;9.48;6.47;;;3.60;79.20;;;;;;5071716;28;20092;-61
2022/03/05 10:51:13;;;;;;;7.18;4.95;;;3.70;79.30;;;;;;5062110;28;20116;-61
2022/03/05 10:53:47;;;;;;;8.38;6.30;;;3.70;79.00;;;;;;5071467;28;20021;-61
2022/03/05 10:56:24;;;;;;;7.05;4.70;;;3.70;79.40;;;;;;5059469;28;20044;-61
2022/03/05 10:58:57;;;;;;;7.55;6.38;;;3.70;79.10;;;;;;5076177;28;20024;-61
2022/03/05 11:01:25;;;;;;;7.97;6.45;;;3.70;79.00;;;;;;5059445;28;20053;-61
2022/03/05 11:03:57;;;;;;;7.70;4.70;;;3.80;78.70;;;;;;5077815;28;20439;-61
2022/03/05 11:06:24;;;;;;;7.65;6.03;;;3.70;78.60;;;;;;5074088;28;20438;-60
2022/03/05 11:08:52;;;;;;;7.78;6.30;;;3.70;78.70;;;;;;5074346;28;20028;-61
2022/03/05 11:11:27;;;;;;;7.20;4.95;;;3.80;78.60;;;;;;5076899;28;20119;-61
2022/03/05 11:13:54;;;;;;;9.63;4.38;;;3.80;78.60;;;;;;5065632;28;20048;-60
2022/03/05 11:16:21;;;;;;;7.55;6.15;;;3.70;78.70;;;;;;5068283;28;20066;-60
2022/03/05 11:18:48;;;;;;;7.60;4.70;;;3.80;78.70;;;;;;5068835;28;20063;-60
2022/03/05 11:21:13;;;;;;;7.85;6.20;;;3.80;78.50;;;;;;5073818;28;20052;-60
2022/03/05 11:23:41;;;;;;;5.75;4.43;;;3.80;78.60;;;;;;5070428;28;20060;-60
2022/03/05 11:26:09;;;;;;;8.05;6.60;;;3.80;78.50;;;;;;5072254;28;20029;-60
2022/03/05 11:28:38;;;;;;;7.90;6.13;;;3.90;78.30;;;;;;5052157;28;20392;-60
2022/03/05 11:31:24;;;;;;;7.50;5.20;;;3.90;77.70;;;;;;5065086;28;20051;-60
2022/03/05 11:33:51;;;;;;;6.95;5.85;;;3.90;77.50;;;;;;5062754;28;20028;-60
2022/03/05 11:36:35;;;;;;;7.63;6.43;;;3.90;77.80;;;;;;5070125;28;20023;-60
2022/03/05 11:39:20;;;;;;;7.10;4.55;;;4.00;77.50;;;;;;5070489;28;20253;-60
2022/03/05 11:42:06;;;;;;;8.75;5.80;;;4.00;77.70;;;;;;5069868;28;20027;-61
2022/03/05 11:44:41;;;;;;;7.18;6.22;;;4.10;77.70;;;;;;5074159;28;20025;-61
2022/03/05 11:47:22;;;;;;;6.40;4.40;;;4.20;77.10;;;;;;5073766;28;20064;-61
2022/03/05 11:50:00;;;;;;;5.65;3.90;;;4.20;77.20;;;;;;5074334;28;20036;-61
2022/03/05 11:52:38;;;;;;;6.43;4.20;;;4.20;77.50;;;;;;5072762;28;20496;-61
2022/03/05 11:55:18;;;;;;;6.40;5.53;;;4.30;77.30;;;;;;5063820;28;20059;-60
2022/03/05 11:57:50;;;;;;;7.22;5.65;;;4.40;76.60;;;;;;5072345;28;20047;-60
2022/03/05 12:00:19;;;;;;;6.15;4.93;;;4.50;75.80;;;;;;5074295;28;20044;-61
2022/03/05 12:02:47;;;;;;;6.22;4.78;;;4.50;74.50;;;;;;5072130;28;20103;-62
2022/03/05 12:05:38;;;;;;;5.85;3.80;;;4.50;73.60;;;;;;5073972;28;20016;-61
2022/03/05 12:08:09;;;;;;;4.30;3.90;;;4.40;72.90;;;;;;5074185;28;20036;-61
2022/03/05 12:10:40;;;;;;;5.55;4.38;;;4.40;72.80;;;;;;5072748;28;20035;-62
2022/03/05 12:13:15;;;;;;;6.13;3.55;;;4.40;72.50;;;;;;5075654;28;20089;-61
2022/03/05 12:15:43;;;;;;;4.72;3.35;;;4.30;72.90;;;;;;5069761;28;20029;-61
2022/03/05 12:18:15;;;;;;;4.40;3.20;;;4.20;73.20;;;;;;5083774;28;20036;-61
2022/03/05 12:20:45;;;;;;;4.72;3.78;;;4.20;73.60;;;;;;5085370;28;20029;-62
2022/03/05 12:23:20;;;;;;;6.13;3.45;;;4.10;74.00;;;;;;5077345;28;20042;-62
2022/03/05 12:25:49;;;;;;;5.47;3.42;;;4.10;74.40;;;;;;5072062;28;20016;-61
2022/03/05 12:28:18;;;;;;;3.35;3.00;;;4.00;74.70;;;;;;5075497;28;20025;-61
2022/03/05 12:30:45;;;;;;;4.07;3.20;;;4.00;75.20;;;;;;5079776;28;20112;-59
2022/03/05 12:33:16;;;;;;;4.93;3.30;;;4.00;75.50;;;;;;5068370;28;20388;-61
2022/03/05 12:35:44;;;;;;;4.05;3.65;;;4.00;75.40;;;;;;5070009;28;20146;-60
2022/03/05 12:38:15;;;;;;;3.88;3.00;;;4.00;75.10;;;;;;5076205;28;20024;-61
2022/03/05 12:40:41;;;;;;;4.28;3.53;;;4.00;74.90;;;;;;5073619;28;20024;-61
2022/03/05 12:43:08;;;;;;;5.18;3.05;;;4.10;74.80;;;;;;5073374;28;20066;-61
2022/03/05 12:45:37;;;;;;;3.65;2.80;;;4.00;74.60;;;;;;5083519;28;20024;-60
2022/03/05 12:48:14;;;;;;;4.18;3.50;;;4.10;74.90;;;;;;5072664;28;20061;-60
2022/03/05 12:50:50;;;;;;;3.65;3.05;;;4.20;74.30;;;;;;5071981;28;20036;-62
2022/03/05 12:53:26;;;;;;;4.57;3.58;;;4.20;74.30;;;;;;5071415;28;20034;-62
2022/03/05 12:55:57;;;;;;;3.95;2.80;;;4.30;73.90;;;;;;5071188;28;20081;-62
2022/03/05 12:58:24;;;;;;;4.07;2.80;;;4.30;74.00;;;;;;5061769;28;20036;-61